createdAt,value
2018-01-19T00:00:44.757Z,1.52
2018-01-19T00:01:44.748Z,1.55
2018-01-19T00:02:44.739Z,1.52
2018-01-19T00:03:44.733Z,1.58
2018-01-19T00:04:44.723Z,1.55
2018-01-19T00:05:44.718Z,1.55
2018-01-19T00:06:44.708Z,1.48
2018-01-19T00:07:44.700Z,1.38
2018-01-19T00:08:44.692Z,1.52
2018-01-19T00:09:44.723Z,1.37
2018-01-19T00:10:44.677Z,1.32
2018-01-19T00:11:44.670Z,1.41
2018-01-19T00:12:44.661Z,1.48
2018-01-19T00:13:44.653Z,1.40
2018-01-19T00:14:44.644Z,1.31
2018-01-19T00:15:44.636Z,1.38
2018-01-19T00:16:44.629Z,1.41
2018-01-19T00:17:44.622Z,1.32
2018-01-19T00:18:44.613Z,1.37
2018-01-19T00:19:44.604Z,1.35
2018-01-19T00:20:44.596Z,1.32
2018-01-19T00:21:44.590Z,1.35
2018-01-19T00:22:44.581Z,1.32
2018-01-19T00:23:44.574Z,1.32
2018-01-19T00:24:44.566Z,1.32
2018-01-19T00:25:44.558Z,1.24
2018-01-19T00:26:44.549Z,1.37
2018-01-19T00:27:44.542Z,1.37
2018-01-19T00:28:44.532Z,1.34
2018-01-19T00:29:44.524Z,1.30
2018-01-19T00:30:44.515Z,1.26
2018-01-19T00:31:44.508Z,1.32
2018-01-19T00:32:44.499Z,1.28
2018-01-19T00:33:44.492Z,1.28
2018-01-19T00:34:44.534Z,1.24
2018-01-19T00:35:44.477Z,1.16
2018-01-19T00:36:44.472Z,1.19
2018-01-19T00:37:44.460Z,1.10
2018-01-19T00:38:44.451Z,1.13
2018-01-19T00:39:44.444Z,1.13
2018-01-19T00:40:44.435Z,1.19
2018-01-19T00:41:44.427Z,1.16
2018-01-19T00:42:44.418Z,1.28
2018-01-19T00:43:44.411Z,1.24
2018-01-19T00:44:44.402Z,1.30
2018-01-19T00:45:44.395Z,1.32
2018-01-19T00:46:44.386Z,1.34
2018-01-19T00:47:44.378Z,1.37
2018-01-19T00:48:44.371Z,1.40
2018-01-19T00:49:44.370Z,1.38
2018-01-19T00:50:44.355Z,1.45
2018-01-19T00:51:44.346Z,1.42
2018-01-19T00:52:44.339Z,1.49
2018-01-19T00:53:44.330Z,1.41
2018-01-19T00:54:44.321Z,1.45
2018-01-19T00:55:44.313Z,1.45
2018-01-19T00:56:44.306Z,1.42
2018-01-19T00:57:44.298Z,1.37
2018-01-19T00:58:44.289Z,1.44
2018-01-19T00:59:44.281Z,1.40
2018-01-19T01:00:44.274Z,1.42
2018-01-19T01:01:44.267Z,1.52
2018-01-19T01:02:44.259Z,1.48
2018-01-19T01:03:44.251Z,1.52
2018-01-19T01:04:44.243Z,1.48
2018-01-19T01:05:44.234Z,1.53
2018-01-19T01:06:44.227Z,1.50
2018-01-19T01:07:44.218Z,1.58
2018-01-19T01:08:44.215Z,1.49
2018-01-19T01:09:44.202Z,1.48
2018-01-19T01:10:44.194Z,1.58
2018-01-19T01:11:44.186Z,1.50
2018-01-19T01:12:44.178Z,1.50
2018-01-19T01:13:44.171Z,1.52
2018-01-19T01:14:44.162Z,1.56
2018-01-19T01:15:44.155Z,1.53
2018-01-19T01:16:44.148Z,1.55
2018-01-19T01:17:44.139Z,1.56
2018-01-19T01:18:44.132Z,1.62
2018-01-19T01:19:44.123Z,1.66
2018-01-19T01:20:44.116Z,1.71
2018-01-19T01:21:44.112Z,1.78
2018-01-19T01:22:44.098Z,1.77
2018-01-19T01:23:44.091Z,1.73
2018-01-19T01:24:44.083Z,1.77
2018-01-19T01:25:44.075Z,1.81
2018-01-19T01:26:44.066Z,1.70
2018-01-19T01:27:44.060Z,1.76
2018-01-19T01:28:44.051Z,1.73
2018-01-19T01:29:44.045Z,1.73
2018-01-19T01:30:44.036Z,1.73
2018-01-19T01:31:44.028Z,1.80
2018-01-19T01:32:44.021Z,1.85
2018-01-19T01:33:44.014Z,1.85
2018-01-19T01:34:44.005Z,1.80
2018-01-19T01:35:43.997Z,1.89
2018-01-19T01:36:43.989Z,1.84
2018-01-19T01:37:43.981Z,1.88
2018-01-19T01:38:43.973Z,1.84
2018-01-19T01:39:43.964Z,1.87
2018-01-19T01:40:43.957Z,1.89
2018-01-19T01:41:43.950Z,1.85
2018-01-19T01:42:43.942Z,1.81
2018-01-19T01:43:43.933Z,1.84
2018-01-19T01:44:43.927Z,1.80
2018-01-19T01:45:43.920Z,1.81
2018-01-19T01:46:43.910Z,1.87
2018-01-19T01:47:43.903Z,1.91
2018-01-19T01:48:43.897Z,1.89
2018-01-19T01:49:43.888Z,1.80
2018-01-19T01:50:43.879Z,1.78
2018-01-19T01:51:43.872Z,1.91
2018-01-19T01:52:43.864Z,1.92
2018-01-19T01:53:43.857Z,1.94
2018-01-19T01:54:43.848Z,1.99
2018-01-19T01:55:43.842Z,1.94
2018-01-19T01:56:43.833Z,1.92
2018-01-19T01:57:43.825Z,2.08
2018-01-19T01:58:43.823Z,1.94
2018-01-19T01:59:43.810Z,1.95
2018-01-19T02:00:43.802Z,2.04
2018-01-19T02:01:43.795Z,2.07
2018-01-19T02:02:43.786Z,2.07
2018-01-19T02:03:43.780Z,2.07
2018-01-19T02:04:43.772Z,2.07
2018-01-19T02:05:43.765Z,2.08
2018-01-19T02:06:43.756Z,2.06
2018-01-19T02:07:43.748Z,2.08
2018-01-19T02:08:43.742Z,2.06
2018-01-19T02:09:43.734Z,2.07
2018-01-19T02:10:43.725Z,2.10
2018-01-19T02:11:43.721Z,2.13
2018-01-19T02:12:43.709Z,2.20
2018-01-19T02:13:43.701Z,2.25
2018-01-19T02:14:43.696Z,2.18
2018-01-19T02:15:43.689Z,2.26
2018-01-19T02:16:43.679Z,2.44
2018-01-19T02:17:43.673Z,2.39
2018-01-19T02:18:43.664Z,2.46
2018-01-19T02:19:43.658Z,2.44
2018-01-19T02:20:43.652Z,2.50
2018-01-19T02:21:43.644Z,2.60
2018-01-19T02:22:43.634Z,2.64
2018-01-19T02:23:43.628Z,2.68
2018-01-19T02:24:43.620Z,2.82
2018-01-19T02:25:43.614Z,2.75
2018-01-19T02:26:43.605Z,2.82
2018-01-19T02:27:43.597Z,2.93
2018-01-19T02:28:43.589Z,2.92
2018-01-19T02:29:43.582Z,2.92
2018-01-19T02:30:43.574Z,3.01
2018-01-19T02:31:43.568Z,2.97
2018-01-19T02:32:43.561Z,2.95
2018-01-19T02:33:43.558Z,2.90
2018-01-19T02:34:43.544Z,2.87
2018-01-19T02:35:43.536Z,3.03
2018-01-19T02:36:43.530Z,3.03
2018-01-19T02:37:43.523Z,3.03
2018-01-19T02:38:43.515Z,3.04
2018-01-19T02:39:43.506Z,2.98
2018-01-19T02:40:43.499Z,3.04
2018-01-19T02:41:43.492Z,3.00
2018-01-19T02:42:43.484Z,3.01
2018-01-19T02:43:43.476Z,3.04
2018-01-19T02:44:43.469Z,2.95
2018-01-19T02:45:43.461Z,2.97
2018-01-19T02:46:43.453Z,2.90
2018-01-19T02:47:43.444Z,2.89
2018-01-19T02:48:43.437Z,2.86
2018-01-19T02:49:43.430Z,2.90
2018-01-19T02:50:43.422Z,2.90
2018-01-19T02:51:43.414Z,2.93
2018-01-19T02:52:43.405Z,2.93
2018-01-19T02:53:43.399Z,2.90
2018-01-19T02:54:43.394Z,2.86
2018-01-19T02:55:43.382Z,2.90
2018-01-19T02:56:43.375Z,2.83
2018-01-19T02:57:43.368Z,2.75
2018-01-19T02:58:43.359Z,2.83
2018-01-19T02:59:43.353Z,2.77
2018-01-19T03:00:43.345Z,2.82
2018-01-19T03:01:43.336Z,2.75
2018-01-19T03:02:43.327Z,2.75
2018-01-19T03:03:43.319Z,2.77
2018-01-19T03:04:43.313Z,2.68
2018-01-19T03:05:43.305Z,2.74
2018-01-19T03:06:43.296Z,2.75
2018-01-19T03:07:43.288Z,2.64
2018-01-19T03:08:43.281Z,2.68
2018-01-19T03:09:43.273Z,2.67
2018-01-19T03:10:43.265Z,2.62
2018-01-19T03:11:43.257Z,2.68
2018-01-19T03:12:43.250Z,2.69
2018-01-19T03:13:43.241Z,2.54
2018-01-19T03:14:43.233Z,2.62
2018-01-19T03:15:43.226Z,2.62
2018-01-19T03:16:43.219Z,2.49
2018-01-19T03:17:43.210Z,2.51
2018-01-19T03:18:43.202Z,2.56
2018-01-19T03:19:43.196Z,2.49
2018-01-19T03:20:43.188Z,2.44
2018-01-19T03:21:43.180Z,2.42
2018-01-19T03:22:43.170Z,2.46
2018-01-19T03:23:43.163Z,2.46
2018-01-19T03:24:43.156Z,2.49
2018-01-19T03:25:43.148Z,2.43
2018-01-19T03:26:43.140Z,2.44
2018-01-19T03:27:43.133Z,2.44
2018-01-19T03:28:43.126Z,2.39
2018-01-19T03:29:43.118Z,2.42
2018-01-19T03:30:43.109Z,2.43
2018-01-19T03:31:43.101Z,2.42
2018-01-19T03:32:43.093Z,2.47
2018-01-19T03:33:43.086Z,2.36
2018-01-19T03:34:43.077Z,2.39
2018-01-19T03:35:43.070Z,2.44
2018-01-19T03:36:43.061Z,2.26
2018-01-19T03:37:43.054Z,2.31
2018-01-19T03:38:43.045Z,2.31
2018-01-19T03:39:43.038Z,2.25
2018-01-19T03:40:43.030Z,2.31
2018-01-19T03:41:43.022Z,2.17
2018-01-19T03:42:43.015Z,2.17
2018-01-19T03:43:43.006Z,2.26
2018-01-19T03:44:42.999Z,2.22
2018-01-19T03:45:42.991Z,2.24
2018-01-19T03:46:42.982Z,2.11
2018-01-19T03:47:42.973Z,2.17
2018-01-19T03:48:42.967Z,2.25
2018-01-19T03:49:42.957Z,2.18
2018-01-19T03:50:42.950Z,2.08
2018-01-19T03:51:42.941Z,2.07
2018-01-19T03:52:42.933Z,2.18
2018-01-19T03:53:42.926Z,2.07
2018-01-19T03:54:42.917Z,2.08
2018-01-19T03:55:42.909Z,2.13
2018-01-19T03:56:42.904Z,2.07
2018-01-19T03:57:42.894Z,2.14
2018-01-19T03:58:42.885Z,2.14
2018-01-19T03:59:42.877Z,2.08
2018-01-19T04:00:42.868Z,2.08
2018-01-19T04:01:42.861Z,2.07
2018-01-19T04:02:42.851Z,2.06
2018-01-19T04:03:42.844Z,2.04
2018-01-19T04:04:42.836Z,1.95
2018-01-19T04:05:42.831Z,2.06
2018-01-19T04:06:42.820Z,2.07
2018-01-19T04:07:42.811Z,2.06
2018-01-19T04:08:42.804Z,1.95
2018-01-19T04:09:42.802Z,1.97
2018-01-19T04:10:42.786Z,2.07
2018-01-19T04:11:42.778Z,2.06
2018-01-19T04:12:42.770Z,2.14
2018-01-19T04:13:42.762Z,2.07
2018-01-19T04:14:42.753Z,2.17
2018-01-19T04:15:42.747Z,2.02
2018-01-19T04:16:42.738Z,2.14
2018-01-19T04:17:42.730Z,2.25
2018-01-19T04:18:42.723Z,2.17
2018-01-19T04:19:42.715Z,2.18
2018-01-19T04:20:42.710Z,2.25
2018-01-19T04:21:42.699Z,2.18
2018-01-19T04:22:42.689Z,2.11
2018-01-19T04:23:42.683Z,2.14
2018-01-19T04:24:42.675Z,2.13
2018-01-19T04:25:42.667Z,2.15
2018-01-19T04:26:42.657Z,2.24
2018-01-19T04:27:42.650Z,2.24
2018-01-19T04:28:42.641Z,2.14
2018-01-19T04:29:42.634Z,2.24
2018-01-19T04:30:42.626Z,2.18
2018-01-19T04:31:42.617Z,2.17
2018-01-19T04:32:42.609Z,2.15
2018-01-19T04:33:42.602Z,2.17
2018-01-19T04:34:42.594Z,2.14
2018-01-19T04:35:42.585Z,2.18
2018-01-19T04:36:42.578Z,2.15
2018-01-19T04:37:42.570Z,2.14
2018-01-19T04:38:42.560Z,2.18
2018-01-19T04:39:42.554Z,2.13
2018-01-19T04:40:42.545Z,2.15
2018-01-19T04:41:42.537Z,2.14
2018-01-19T04:42:42.529Z,2.18
2018-01-19T04:43:42.520Z,2.17
2018-01-19T04:44:42.513Z,2.15
2018-01-19T04:45:42.505Z,2.24
2018-01-19T04:46:42.497Z,2.24
2018-01-19T04:47:42.488Z,2.25
2018-01-19T04:48:42.481Z,2.22
2018-01-19T04:49:42.472Z,2.24
2018-01-19T04:50:42.463Z,2.26
2018-01-19T04:51:42.457Z,2.22
2018-01-19T04:52:42.448Z,2.13
2018-01-19T04:53:42.440Z,2.11
2018-01-19T04:54:42.431Z,2.28
2018-01-19T04:55:42.424Z,2.20
2018-01-19T04:56:42.417Z,2.13
2018-01-19T04:57:42.409Z,2.14
2018-01-19T04:58:42.400Z,2.22
2018-01-19T04:59:42.391Z,2.15
2018-01-19T05:00:42.384Z,2.17
2018-01-19T05:01:42.375Z,2.17
2018-01-19T05:02:42.366Z,2.25
2018-01-19T05:03:42.359Z,2.15
2018-01-19T05:04:42.349Z,2.17
2018-01-19T05:05:42.343Z,2.26
2018-01-19T05:06:42.334Z,2.28
2018-01-19T05:07:42.327Z,2.20
2018-01-19T05:08:42.319Z,2.13
2018-01-19T05:09:42.310Z,2.26
2018-01-19T05:10:42.301Z,2.25
2018-01-19T05:11:42.294Z,2.32
2018-01-19T05:12:42.288Z,2.29
2018-01-19T05:13:42.279Z,2.18
2018-01-19T05:14:42.270Z,2.13
2018-01-19T05:15:42.261Z,2.26
2018-01-19T05:16:42.254Z,2.26
2018-01-19T05:17:42.246Z,2.26
2018-01-19T05:18:42.277Z,2.20
2018-01-19T05:19:42.230Z,2.29
2018-01-19T05:20:42.222Z,2.26
2018-01-19T05:21:42.231Z,2.15
2018-01-19T05:22:42.206Z,2.24
2018-01-19T05:23:42.197Z,2.31
2018-01-19T05:24:42.190Z,2.32
2018-01-19T05:25:42.182Z,2.33
2018-01-19T05:26:42.174Z,2.29
2018-01-19T05:27:42.166Z,2.29
2018-01-19T05:28:42.164Z,2.28
2018-01-19T05:29:42.149Z,2.26
2018-01-19T05:30:42.140Z,2.26
2018-01-19T05:31:42.135Z,2.26
2018-01-19T05:32:42.124Z,2.33
2018-01-19T05:33:42.117Z,2.31
2018-01-19T05:34:42.109Z,2.32
2018-01-19T05:35:42.101Z,2.31
2018-01-19T05:36:42.094Z,2.22
2018-01-19T05:37:42.086Z,2.26
2018-01-19T05:38:42.077Z,2.33
2018-01-19T05:39:42.068Z,2.25
2018-01-19T05:40:42.060Z,2.29
2018-01-19T05:41:42.053Z,2.26
2018-01-19T05:42:42.044Z,2.28
2018-01-19T05:43:42.036Z,2.28
2018-01-19T05:44:42.028Z,2.29
2018-01-19T05:45:42.020Z,2.32
2018-01-19T05:46:42.012Z,2.33
2018-01-19T05:47:42.005Z,2.31
2018-01-19T05:48:41.995Z,2.32
2018-01-19T05:49:41.989Z,2.31
2018-01-19T05:50:41.978Z,2.32
2018-01-19T05:51:41.971Z,2.33
2018-01-19T05:52:41.963Z,2.39
2018-01-19T05:53:41.955Z,2.36
2018-01-19T05:54:41.946Z,2.31
2018-01-19T05:55:41.938Z,2.26
2018-01-19T05:56:41.930Z,2.35
2018-01-19T05:57:41.923Z,2.36
2018-01-19T05:58:41.914Z,2.33
2018-01-19T05:59:41.906Z,2.36
2018-01-19T06:00:41.897Z,2.36
2018-01-19T06:01:41.890Z,2.28
2018-01-19T06:02:41.880Z,2.36
2018-01-19T06:03:41.873Z,2.44
2018-01-19T06:04:41.865Z,2.47
2018-01-19T06:05:41.857Z,2.43
2018-01-19T06:06:41.847Z,2.44
2018-01-19T06:07:41.839Z,2.43
2018-01-19T06:08:41.837Z,2.33
2018-01-19T06:09:41.824Z,2.43
2018-01-19T06:10:41.816Z,2.33
2018-01-19T06:11:41.815Z,2.42
2018-01-19T06:12:41.800Z,2.49
2018-01-19T06:13:41.793Z,2.39
2018-01-19T06:14:41.782Z,2.42
2018-01-19T06:15:41.776Z,2.44
2018-01-19T06:16:41.766Z,2.46
2018-01-19T06:17:41.760Z,2.46
2018-01-19T06:18:41.750Z,2.49
2018-01-19T06:19:41.742Z,2.47
2018-01-19T06:20:41.734Z,2.46
2018-01-19T06:21:41.727Z,2.46
2018-01-19T06:22:41.718Z,2.47
2018-01-19T06:23:41.710Z,2.49
2018-01-19T06:24:41.703Z,2.46
2018-01-19T06:25:41.695Z,2.46
2018-01-19T06:26:41.687Z,2.47
2018-01-19T06:27:41.693Z,2.46
2018-01-19T06:28:41.671Z,2.47
2018-01-19T06:29:41.662Z,2.56
2018-01-19T06:30:41.651Z,2.49
2018-01-19T06:31:41.647Z,2.46
2018-01-19T06:32:41.639Z,2.47
2018-01-19T06:33:41.629Z,2.47
2018-01-19T06:34:41.621Z,2.62
2018-01-19T06:35:41.614Z,2.50
2018-01-19T06:36:41.606Z,2.44
2018-01-19T06:37:41.598Z,2.49
2018-01-19T06:38:41.590Z,2.60
2018-01-19T06:39:41.581Z,2.53
2018-01-19T06:40:41.574Z,2.60
2018-01-19T06:41:41.565Z,2.62
2018-01-19T06:42:41.558Z,2.56
2018-01-19T06:43:41.549Z,2.60
2018-01-19T06:44:41.541Z,2.60
2018-01-19T06:45:41.537Z,2.62
2018-01-19T06:46:41.525Z,2.69
2018-01-19T06:47:41.562Z,2.65
2018-01-19T06:48:41.510Z,2.57
2018-01-19T06:49:41.502Z,2.62
2018-01-19T06:50:41.494Z,2.69
2018-01-19T06:51:41.485Z,2.71
2018-01-19T06:52:41.478Z,2.72
2018-01-19T06:53:41.470Z,2.79
2018-01-19T06:54:41.461Z,2.75
2018-01-19T06:55:41.454Z,2.69
2018-01-19T06:56:41.447Z,2.85
2018-01-19T06:57:41.439Z,2.79
2018-01-19T06:58:41.429Z,2.72
2018-01-19T06:59:41.421Z,2.82
2018-01-19T07:00:41.414Z,3.23
2018-01-19T07:01:41.408Z,3.01
2018-01-19T07:02:41.397Z,2.98
2018-01-19T07:03:41.390Z,2.97
2018-01-19T07:04:41.382Z,2.93
2018-01-19T07:05:41.387Z,2.95
2018-01-19T07:06:41.367Z,3.00
2018-01-19T07:07:41.357Z,3.01
2018-01-19T07:08:41.350Z,3.18
2018-01-19T07:09:41.343Z,2.92
2018-01-19T07:10:41.333Z,2.87
2018-01-19T07:11:41.326Z,2.80
2018-01-19T07:12:41.318Z,3.14
2018-01-19T07:13:41.313Z,3.11
2018-01-19T07:14:41.303Z,3.22
2018-01-19T07:15:41.295Z,3.53
2018-01-19T07:16:41.286Z,3.07
2018-01-19T07:17:41.280Z,2.83
2018-01-19T07:18:41.271Z,2.86
2018-01-19T07:19:41.262Z,2.62
2018-01-19T07:20:41.256Z,2.46
2018-01-19T07:21:41.248Z,2.39
2018-01-19T07:22:41.238Z,2.38
2018-01-19T07:23:41.232Z,2.39
2018-01-19T07:24:41.224Z,2.43
2018-01-19T07:25:41.216Z,2.32
2018-01-19T07:26:41.210Z,2.31
2018-01-19T07:27:41.199Z,2.25
2018-01-19T07:28:41.193Z,2.26
2018-01-19T07:29:41.185Z,2.28
2018-01-19T07:30:41.179Z,2.17
2018-01-19T07:31:41.167Z,2.18
2018-01-19T07:32:41.159Z,2.20
2018-01-19T07:33:41.152Z,2.18
2018-01-19T07:34:41.142Z,2.18
2018-01-19T07:35:41.134Z,2.22
2018-01-19T07:36:41.128Z,2.28
2018-01-19T07:37:41.120Z,2.20
2018-01-19T07:38:41.111Z,2.31
2018-01-19T07:39:41.102Z,2.47
2018-01-19T07:40:41.131Z,2.49
2018-01-19T07:41:41.089Z,2.43
2018-01-19T07:42:41.078Z,2.38
2018-01-19T07:43:41.070Z,2.39
2018-01-19T07:44:41.064Z,2.36
2018-01-19T07:45:41.056Z,2.49
2018-01-19T07:46:41.046Z,2.47
2018-01-19T07:47:41.039Z,2.47
2018-01-19T07:48:41.030Z,2.62
2018-01-19T07:49:41.022Z,2.71
2018-01-19T07:50:41.014Z,2.69
2018-01-19T07:51:41.006Z,2.79
2018-01-19T07:52:40.997Z,2.68
2018-01-19T07:53:40.990Z,2.69
2018-01-19T07:54:40.981Z,2.69
2018-01-19T07:55:40.973Z,2.72
2018-01-19T07:56:40.967Z,2.85
2018-01-19T07:57:40.959Z,2.79
2018-01-19T07:58:40.951Z,2.85
2018-01-19T07:59:40.944Z,2.83
2018-01-19T08:00:40.934Z,2.80
2018-01-19T08:01:40.927Z,2.79
2018-01-19T08:02:40.919Z,3.29
2018-01-19T08:03:40.910Z,3.21
2018-01-19T08:04:40.902Z,3.00
2018-01-19T08:05:40.895Z,2.95
2018-01-19T08:06:40.886Z,3.01
2018-01-19T08:07:40.879Z,3.03
2018-01-19T08:08:40.871Z,2.95
2018-01-19T08:09:40.863Z,3.05
2018-01-19T08:10:40.855Z,2.98
2018-01-19T08:11:40.849Z,2.98
2018-01-19T08:12:40.840Z,2.98
2018-01-19T08:13:40.833Z,3.03
2018-01-19T08:14:40.824Z,3.04
2018-01-19T08:15:40.816Z,3.03
2018-01-19T08:16:40.809Z,3.08
2018-01-19T08:17:40.802Z,3.14
2018-01-19T08:18:40.792Z,3.16
2018-01-19T08:19:40.812Z,3.04
2018-01-19T08:20:40.778Z,3.16
2018-01-19T08:21:40.769Z,3.05
2018-01-19T08:22:40.764Z,3.08
2018-01-19T08:23:40.754Z,3.16
2018-01-19T08:24:40.746Z,3.05
2018-01-19T08:25:40.739Z,3.13
2018-01-19T08:26:40.730Z,3.23
2018-01-19T08:27:40.722Z,3.22
2018-01-19T08:28:40.715Z,3.13
2018-01-19T08:29:40.708Z,3.25
2018-01-19T08:30:40.698Z,3.22
2018-01-19T08:31:40.690Z,3.25
2018-01-19T08:32:40.683Z,3.25
2018-01-19T08:33:40.677Z,3.23
2018-01-19T08:34:40.667Z,3.26
2018-01-19T08:35:40.659Z,3.22
2018-01-19T08:36:40.653Z,3.25
2018-01-19T08:37:40.644Z,3.16
2018-01-19T08:38:40.636Z,3.22
2018-01-19T08:39:40.629Z,3.34
2018-01-19T08:40:40.621Z,3.34
2018-01-19T08:41:40.613Z,3.32
2018-01-19T08:42:40.605Z,3.41
2018-01-19T08:43:40.597Z,3.31
2018-01-19T08:44:40.591Z,3.40
2018-01-19T08:45:40.584Z,3.34
2018-01-19T08:46:40.574Z,3.60
2018-01-19T08:47:40.566Z,3.70
2018-01-19T08:48:40.559Z,3.65
2018-01-19T08:49:40.554Z,3.66
2018-01-19T08:50:40.545Z,3.56
2018-01-19T08:51:40.536Z,3.55
2018-01-19T08:52:40.529Z,3.50
2018-01-19T08:53:40.522Z,3.56
2018-01-19T08:54:40.513Z,3.56
2018-01-19T08:55:40.506Z,3.63
2018-01-19T08:56:40.505Z,3.77
2018-01-19T08:57:40.493Z,3.78
2018-01-19T08:58:40.484Z,3.78
2018-01-19T08:59:40.476Z,3.68
2018-01-19T09:00:40.469Z,3.77
2018-01-19T09:01:40.463Z,3.73
2018-01-19T09:02:40.454Z,3.76
2018-01-19T09:03:40.447Z,3.70
2018-01-19T09:04:40.440Z,3.69
2018-01-19T09:05:40.434Z,3.76
2018-01-19T09:06:40.428Z,3.80
2018-01-19T09:07:40.419Z,3.81
2018-01-19T09:08:40.411Z,3.68
2018-01-19T09:09:40.404Z,3.68
2018-01-19T09:10:40.395Z,3.66
2018-01-19T09:11:40.387Z,3.65
2018-01-19T09:12:40.381Z,3.68
2018-01-19T09:13:40.375Z,3.69
2018-01-19T09:14:40.367Z,3.68
2018-01-19T09:15:40.362Z,3.68
2018-01-19T09:16:40.352Z,3.69
2018-01-19T09:17:40.344Z,3.69
2018-01-19T09:18:40.336Z,3.73
2018-01-19T09:19:40.330Z,3.96
2018-01-19T09:20:40.321Z,3.94
2018-01-19T09:21:40.316Z,3.80
2018-01-19T09:22:40.307Z,3.78
2018-01-19T09:23:40.300Z,3.78
2018-01-19T09:24:40.294Z,3.80
2018-01-19T09:25:40.286Z,3.78
2018-01-19T09:26:40.279Z,3.91
2018-01-19T09:27:40.270Z,3.88
2018-01-19T09:28:40.312Z,3.94
2018-01-19T09:29:40.257Z,3.84
2018-01-19T09:30:40.253Z,3.95
2018-01-19T09:31:40.241Z,3.96
2018-01-19T09:32:40.236Z,3.96
2018-01-19T09:33:40.271Z,3.94
2018-01-19T09:34:40.221Z,3.94
2018-01-19T09:35:40.213Z,3.98
2018-01-19T09:36:40.207Z,3.94
2018-01-19T09:37:40.199Z,3.95
2018-01-19T09:38:40.190Z,3.95
2018-01-19T09:39:40.185Z,4.01
2018-01-19T09:40:40.178Z,3.95
2018-01-19T09:41:40.173Z,4.12
2018-01-19T09:42:40.164Z,4.08
2018-01-19T09:43:40.155Z,4.04
2018-01-19T09:44:40.148Z,4.01
2018-01-19T09:45:40.141Z,4.05
2018-01-19T09:46:40.134Z,3.98
2018-01-19T09:47:40.133Z,4.45
2018-01-19T09:48:40.121Z,4.34
2018-01-19T09:49:40.114Z,4.23
2018-01-19T09:50:40.106Z,4.20
2018-01-19T09:51:40.099Z,4.14
2018-01-19T09:52:40.092Z,3.99
2018-01-19T09:53:40.085Z,4.02
2018-01-19T09:54:40.079Z,4.41
2018-01-19T09:55:40.070Z,4.37
2018-01-19T09:56:40.065Z,4.37
2018-01-19T09:57:40.057Z,4.34
2018-01-19T09:58:40.049Z,4.60
2018-01-19T09:59:40.043Z,4.67
2018-01-19T10:00:40.035Z,4.59
2018-01-19T10:01:40.030Z,4.53
2018-01-19T10:02:40.022Z,4.48
2018-01-19T10:03:40.015Z,4.48
2018-01-19T10:04:40.012Z,4.42
2018-01-19T10:05:40.003Z,4.41
2018-01-19T10:06:39.994Z,4.55
2018-01-19T10:07:39.988Z,4.53
2018-01-19T10:08:39.980Z,4.42
2018-01-19T10:09:39.975Z,4.50
2018-01-19T10:10:39.967Z,4.40
2018-01-19T10:11:39.962Z,4.41
2018-01-19T10:12:39.956Z,4.40
2018-01-19T10:13:39.948Z,4.48
2018-01-19T10:14:39.941Z,4.42
2018-01-19T10:15:39.934Z,4.41
2018-01-19T10:16:39.928Z,4.37
2018-01-19T10:17:39.922Z,4.41
2018-01-19T10:18:39.915Z,4.38
2018-01-19T10:19:39.908Z,4.37
2018-01-19T10:20:39.901Z,4.42
2018-01-19T10:21:39.895Z,4.37
2018-01-19T10:22:39.887Z,4.35
2018-01-19T10:23:39.882Z,4.44
2018-01-19T10:24:39.874Z,4.44
2018-01-19T10:25:39.868Z,4.45
2018-01-19T10:26:39.861Z,4.49
2018-01-19T10:27:39.854Z,4.49
2018-01-19T10:28:39.852Z,4.53
2018-01-19T10:29:39.841Z,4.63
2018-01-19T10:30:39.834Z,4.62
2018-01-19T10:31:39.828Z,4.67
2018-01-19T10:32:39.820Z,4.73
2018-01-19T10:33:39.816Z,4.67
2018-01-19T10:34:39.808Z,4.66
2018-01-19T10:35:39.801Z,4.62
2018-01-19T10:36:39.794Z,4.63
2018-01-19T10:37:39.788Z,4.75
2018-01-19T10:38:39.781Z,4.75
2018-01-19T10:39:39.773Z,4.62
2018-01-19T10:40:39.767Z,4.73
2018-01-19T10:41:39.762Z,4.68
2018-01-19T10:42:39.753Z,4.63
2018-01-19T10:43:39.749Z,4.84
2018-01-19T10:44:39.741Z,4.84
2018-01-19T10:45:39.735Z,4.75
2018-01-19T10:46:39.730Z,4.77
2018-01-19T10:47:39.722Z,4.62
2018-01-19T10:48:39.716Z,4.67
2018-01-19T10:49:39.709Z,4.78
2018-01-19T10:50:39.702Z,4.73
2018-01-19T10:51:39.697Z,4.70
2018-01-19T10:52:39.690Z,4.70
2018-01-19T10:53:39.683Z,4.84
2018-01-19T10:54:39.709Z,4.86
2018-01-19T10:55:39.670Z,4.80
2018-01-19T10:56:39.663Z,4.80
2018-01-19T10:57:39.661Z,4.75
2018-01-19T10:58:39.651Z,4.86
2018-01-19T10:59:39.643Z,5.00
2018-01-19T11:00:39.637Z,5.04
2018-01-19T11:01:39.631Z,5.10
2018-01-19T11:02:39.624Z,5.14
2018-01-19T11:03:39.618Z,5.08
2018-01-19T11:04:39.612Z,5.07
2018-01-19T11:05:39.610Z,4.99
2018-01-19T11:06:39.599Z,4.92
2018-01-19T11:07:39.593Z,5.15
2018-01-19T11:08:39.587Z,5.08
2018-01-19T11:09:39.581Z,5.30
2018-01-19T11:10:39.573Z,5.07
2018-01-19T11:11:39.567Z,4.90
2018-01-19T11:12:39.562Z,4.80
2018-01-19T11:13:39.555Z,4.99
2018-01-19T11:14:39.548Z,5.00
2018-01-19T11:15:39.541Z,5.07
2018-01-19T11:16:39.535Z,5.10
2018-01-19T11:17:39.529Z,5.14
2018-01-19T11:18:39.521Z,5.26
2018-01-19T11:19:39.514Z,5.38
2018-01-19T11:20:39.509Z,5.44
2018-01-19T11:21:39.504Z,5.41
2018-01-19T11:22:39.495Z,5.39
2018-01-19T11:23:39.489Z,5.46
2018-01-19T11:24:39.484Z,5.47
2018-01-19T11:25:39.478Z,5.39
2018-01-19T11:26:39.470Z,5.33
2018-01-19T11:27:39.464Z,5.32
2018-01-19T11:28:39.458Z,5.33
2018-01-19T11:29:39.452Z,5.41
2018-01-19T11:30:39.446Z,5.29
2018-01-19T11:31:39.439Z,5.33
2018-01-19T11:32:39.434Z,5.35
2018-01-19T11:33:39.427Z,5.30
2018-01-19T11:34:39.421Z,5.28
2018-01-19T11:35:39.414Z,5.30
2018-01-19T11:36:39.409Z,5.41
2018-01-19T11:37:39.403Z,5.41
2018-01-19T11:38:39.396Z,5.36
2018-01-19T11:39:39.390Z,5.30
2018-01-19T11:40:39.384Z,5.26
2018-01-19T11:41:39.379Z,5.29
2018-01-19T11:42:39.371Z,5.39
2018-01-19T11:43:39.366Z,5.39
2018-01-19T11:44:39.360Z,5.50
2018-01-19T11:45:39.355Z,5.53
2018-01-19T11:46:39.348Z,5.61
2018-01-19T11:47:39.342Z,5.44
2018-01-19T11:48:39.337Z,5.46
2018-01-19T11:49:39.331Z,5.47
2018-01-19T11:50:39.325Z,5.43
2018-01-19T11:51:39.317Z,5.46
2018-01-19T11:52:39.312Z,5.46
2018-01-19T11:53:39.307Z,5.66
2018-01-19T11:54:39.299Z,5.57
2018-01-19T11:55:39.292Z,5.65
2018-01-19T11:56:39.287Z,5.80
2018-01-19T11:57:39.281Z,5.83
2018-01-19T11:58:39.274Z,5.82
2018-01-19T11:59:39.269Z,5.82
2018-01-19T12:00:39.263Z,5.83
2018-01-19T12:01:39.259Z,5.83
2018-01-19T12:02:39.250Z,5.82
2018-01-19T12:03:39.244Z,5.76
2018-01-19T12:04:39.242Z,5.79
2018-01-19T12:05:39.241Z,5.84
2018-01-19T12:06:39.227Z,5.87
2018-01-19T12:07:39.223Z,5.72
2018-01-19T12:08:39.216Z,5.65
2018-01-19T12:09:39.211Z,5.65
2018-01-19T12:10:39.204Z,5.62
2018-01-19T12:11:39.198Z,5.61
2018-01-19T12:12:39.193Z,5.53
2018-01-19T12:13:39.187Z,5.64
2018-01-19T12:14:39.180Z,5.65
2018-01-19T12:15:39.174Z,5.64
2018-01-19T12:16:39.168Z,5.86
2018-01-19T12:17:39.171Z,5.75
2018-01-19T12:18:39.158Z,5.75
2018-01-19T12:19:39.151Z,5.73
2018-01-19T12:20:39.148Z,5.68
2018-01-19T12:21:39.145Z,5.87
2018-01-19T12:22:39.141Z,5.91
2018-01-19T12:23:39.128Z,5.99
2018-01-19T12:24:39.122Z,5.82
2018-01-19T12:25:39.117Z,5.73
2018-01-19T12:26:39.109Z,5.68
2018-01-19T12:27:39.104Z,5.56
2018-01-19T12:28:39.100Z,5.64
2018-01-19T12:29:39.093Z,5.69
2018-01-19T12:30:39.087Z,5.71
2018-01-19T12:31:39.082Z,5.75
2018-01-19T12:32:39.077Z,5.86
2018-01-19T12:33:39.072Z,5.89
2018-01-19T12:34:39.065Z,5.86
2018-01-19T12:35:39.059Z,5.82
2018-01-19T12:36:39.052Z,5.79
2018-01-19T12:37:39.047Z,5.80
2018-01-19T12:38:39.040Z,5.65
2018-01-19T12:39:39.035Z,5.86
2018-01-19T12:40:39.030Z,5.89
2018-01-19T12:41:39.023Z,5.91
2018-01-19T12:42:39.017Z,6.14
2018-01-19T12:43:39.014Z,5.90
2018-01-19T12:44:39.006Z,5.93
2018-01-19T12:45:39.002Z,5.97
2018-01-19T12:46:38.994Z,6.02
2018-01-19T12:47:38.991Z,5.94
2018-01-19T12:48:38.984Z,5.83
2018-01-19T12:49:38.979Z,5.91
2018-01-19T12:50:38.973Z,5.90
2018-01-19T12:51:38.966Z,5.86
2018-01-19T12:52:38.962Z,5.79
2018-01-19T12:53:38.956Z,5.65
2018-01-19T12:54:38.949Z,5.62
2018-01-19T12:55:38.944Z,5.79
2018-01-19T12:56:38.938Z,5.84
2018-01-19T12:57:38.933Z,5.84
2018-01-19T12:58:38.926Z,5.72
2018-01-19T12:59:38.921Z,5.73
2018-01-19T13:00:38.920Z,5.64
2018-01-19T13:01:38.910Z,5.84
2018-01-19T13:02:38.904Z,5.99
2018-01-19T13:03:38.899Z,6.09
2018-01-19T13:04:38.898Z,6.17
2018-01-19T13:05:38.887Z,6.12
2018-01-19T13:06:38.885Z,5.98
2018-01-19T13:07:38.875Z,6.12
2018-01-19T13:08:38.875Z,6.02
2018-01-19T13:09:38.870Z,5.80
2018-01-19T13:10:38.859Z,5.86
2018-01-19T13:11:38.852Z,5.83
2018-01-19T13:12:38.847Z,5.76
2018-01-19T13:13:38.841Z,5.80
2018-01-19T13:14:38.835Z,5.79
2018-01-19T13:15:38.830Z,5.86
2018-01-19T13:16:38.825Z,5.86
2018-01-19T13:17:38.818Z,6.01
2018-01-19T13:18:38.812Z,5.97